createdAt,value
2018-01-01T00:01:16.767Z,23.60
2018-01-01T00:03:45.991Z,19.80
2018-01-01T00:06:15.266Z,18.27
2018-01-01T00:08:44.470Z,17.63
2018-01-01T00:11:13.739Z,15.37
2018-01-01T00:13:42.936Z,15.33
2018-01-01T00:16:12.147Z,14.77
2018-01-01T00:18:41.387Z,13.17
2018-01-01T00:21:10.589Z,11.93
2018-01-01T00:23:39.792Z,11.20
2018-01-01T00:26:09.066Z,10.90
2018-01-01T00:28:38.299Z,10.90
2018-01-01T00:31:07.474Z,12.90
2018-01-01T00:33:36.718Z,13.23
2018-01-01T00:36:06.721Z,15.50
2018-01-01T00:38:35.960Z,17.20
2018-01-01T00:41:05.257Z,17.40
2018-01-01T00:43:34.455Z,17.63
2018-01-01T00:46:03.694Z,19.50
2018-01-01T00:48:32.882Z,15.20
2018-01-01T00:51:02.112Z,13.53
2018-01-01T00:53:32.094Z,14.20
2018-01-01T00:56:01.432Z,13.60
2018-01-01T00:58:31.382Z,14.00
2018-01-01T01:01:00.717Z,13.50
2018-01-01T01:03:29.940Z,10.27
2018-01-01T01:05:59.928Z,10.40
2018-01-01T01:08:29.138Z,10.03
2018-01-01T01:10:58.337Z,10.40
2018-01-01T01:13:28.331Z,9.73
2018-01-01T01:15:57.529Z,9.03
2018-01-01T01:18:26.735Z,9.67
2018-01-01T01:20:56.734Z,8.50
2018-01-01T01:23:25.902Z,7.40
2018-01-01T01:25:55.215Z,6.73
2018-01-01T01:28:24.406Z,6.73
2018-01-01T01:30:53.610Z,5.40
2018-01-01T01:33:23.119Z,6.17
2018-01-01T01:35:52.313Z,5.83
2018-01-01T01:38:21.518Z,5.40
2018-01-01T01:40:50.754Z,6.33
2018-01-01T01:43:19.951Z,5.90
2018-01-01T01:45:49.149Z,5.87
2018-01-01T01:48:18.360Z,5.07
2018-01-01T01:50:48.296Z,5.93
2018-01-01T01:53:17.505Z,5.80
2018-01-01T01:55:46.739Z,6.00
2018-01-01T01:58:15.954Z,5.20
2018-01-01T02:00:45.199Z,5.63
2018-01-01T02:03:14.393Z,5.93
2018-01-01T02:05:43.580Z,4.80
2018-01-01T02:08:12.955Z,4.50
2018-01-01T02:10:42.922Z,4.33
2018-01-01T02:13:12.103Z,3.90
2018-01-01T02:15:41.434Z,3.43
2018-01-01T02:18:10.611Z,2.47
2018-01-01T02:20:39.798Z,3.00
2018-01-01T02:23:09.115Z,3.27
2018-01-01T02:25:38.301Z,3.50
2018-01-01T02:28:07.549Z,1.87
2018-01-01T02:30:37.522Z,1.73
2018-01-01T02:33:06.734Z,2.50
2018-01-01T02:35:35.933Z,1.57
2018-01-01T02:38:05.958Z,1.60
2018-01-01T02:40:35.134Z,1.73
2018-01-01T02:43:04.319Z,1.60
2018-01-01T02:45:33.492Z,2.03
2018-01-01T02:48:02.706Z,1.13
2018-01-01T02:50:31.871Z,1.73
2018-01-01T02:53:01.824Z,1.03
2018-01-01T02:55:31.018Z,1.90
2018-01-01T02:58:00.237Z,1.60
2018-01-01T03:00:29.414Z,1.00
2018-01-01T03:02:58.629Z,1.23
2018-01-01T03:05:28.077Z,1.67
2018-01-01T03:07:58.046Z,1.47
2018-01-01T03:10:27.311Z,1.00
2018-01-01T03:12:56.870Z,1.40
2018-01-01T03:15:26.063Z,1.60
2018-01-01T03:17:55.240Z,1.67
2018-01-01T03:20:24.478Z,2.07
2018-01-01T03:22:54.441Z,1.50
2018-01-01T03:25:23.709Z,1.17
2018-01-01T03:27:53.663Z,1.70
2018-01-01T03:30:22.895Z,1.57
2018-01-01T03:32:52.084Z,1.70
2018-01-01T03:35:21.379Z,1.37
2018-01-01T03:37:50.572Z,1.63
2018-01-01T03:40:19.763Z,1.53
2018-01-01T03:42:48.950Z,1.33
2018-01-01T03:45:18.166Z,1.50
2018-01-01T03:47:47.491Z,1.50
2018-01-01T03:50:16.666Z,1.70
2018-01-01T03:52:45.852Z,1.33
2018-01-01T03:55:15.046Z,1.40
2018-01-01T03:57:44.281Z,1.13
2018-01-01T04:00:14.247Z,2.10
2018-01-01T04:02:44.257Z,1.23
2018-01-01T04:05:13.450Z,1.50
2018-01-01T04:07:42.661Z,1.30
2018-01-01T04:10:11.836Z,1.40
2018-01-01T04:12:41.036Z,1.97
2018-01-01T04:15:10.218Z,1.77
2018-01-01T04:17:39.411Z,1.30
2018-01-01T04:20:08.605Z,1.70
2018-01-01T04:22:38.578Z,2.27
2018-01-01T04:25:07.787Z,1.57
2018-01-01T04:27:36.973Z,1.17
2018-01-01T04:30:06.162Z,1.60
2018-01-01T04:32:35.339Z,1.87
2018-01-01T04:35:04.529Z,1.27
2018-01-01T04:37:33.749Z,1.40
2018-01-01T04:40:02.975Z,1.77
2018-01-01T04:42:32.149Z,1.23
2018-01-01T04:45:01.402Z,0.90
2018-01-01T04:47:30.619Z,1.13
2018-01-01T04:49:59.881Z,1.77
2018-01-01T04:52:29.844Z,1.30
2018-01-01T04:54:59.018Z,1.20
2018-01-01T04:57:28.211Z,0.90
2018-01-01T04:59:57.401Z,0.90
2018-01-01T05:02:26.594Z,1.17
2018-01-01T05:04:56.534Z,1.77
2018-01-01T05:07:25.743Z,1.00
2018-01-01T05:09:54.938Z,1.20
2018-01-01T05:12:24.130Z,1.00
2018-01-01T05:14:54.141Z,0.90
2018-01-01T05:17:23.346Z,1.30
2018-01-01T05:19:52.538Z,1.13
2018-01-01T05:22:21.723Z,1.07
2018-01-01T05:24:50.914Z,1.00
2018-01-01T05:27:20.107Z,2.13
2018-01-01T05:29:49.450Z,0.80
2018-01-01T05:32:18.641Z,0.90
2018-01-01T05:34:47.903Z,1.10
2018-01-01T05:37:17.891Z,1.50
2018-01-01T05:39:47.074Z,1.20
2018-01-01T05:42:16.273Z,1.00
2018-01-01T05:44:45.446Z,2.30
2018-01-01T05:47:14.651Z,0.90
2018-01-01T05:49:43.903Z,1.30
2018-01-01T05:52:13.087Z,1.23
2018-01-01T05:54:43.051Z,1.30
2018-01-01T05:57:12.235Z,1.00
2018-01-01T05:59:41.427Z,1.03
2018-01-01T06:02:10.602Z,0.80
2018-01-01T06:04:39.794Z,1.20
2018-01-01T06:07:09.755Z,1.30
2018-01-01T06:09:39.807Z,1.20
2018-01-01T06:12:09.878Z,1.13
2018-01-01T06:14:39.077Z,1.77
2018-01-01T06:17:08.278Z,0.80
2018-01-01T06:19:37.582Z,1.20
2018-01-01T06:22:06.787Z,1.10
2018-01-01T06:24:36.011Z,0.93
2018-01-01T06:27:05.218Z,0.90
2018-01-01T06:29:35.164Z,1.13
2018-01-01T06:32:04.358Z,1.17
2018-01-01T06:34:33.612Z,1.10
2018-01-01T06:37:02.843Z,0.80
2018-01-01T06:39:32.035Z,0.80
2018-01-01T06:42:01.184Z,0.83
2018-01-01T06:44:30.389Z,0.70
2018-01-01T06:46:59.587Z,0.90
2018-01-01T06:49:28.782Z,0.90
2018-01-01T06:51:57.966Z,0.70
2018-01-01T06:54:27.149Z,0.60
2018-01-01T06:56:56.329Z,0.70
2018-01-01T06:59:25.518Z,0.80
2018-01-01T07:01:54.702Z,0.80
2018-01-01T07:04:24.686Z,0.80
2018-01-01T07:06:53.903Z,0.70
2018-01-01T07:09:23.998Z,0.87
2018-01-01T07:11:53.207Z,1.33
2018-01-01T07:14:22.421Z,0.80
2018-01-01T07:16:51.606Z,0.97
2018-01-01T07:19:20.793Z,0.80
2018-01-01T07:21:50.040Z,1.30
2018-01-01T07:24:19.302Z,1.07
2018-01-01T07:26:48.510Z,1.10
2018-01-01T07:29:18.464Z,1.13
2018-01-01T07:31:47.707Z,1.10
2018-01-01T07:34:16.894Z,1.30
2018-01-01T07:36:46.059Z,1.20
2018-01-01T07:39:15.279Z,0.90
2018-01-01T07:41:44.445Z,0.90
2018-01-01T07:44:13.708Z,1.00
2018-01-01T07:46:43.650Z,1.30
2018-01-01T07:49:12.862Z,1.30
2018-01-01T07:51:42.058Z,1.00
2018-01-01T07:54:11.233Z,1.50
2018-01-01T07:56:40.426Z,1.10
2018-01-01T07:59:10.374Z,1.10
2018-01-01T08:01:39.565Z,1.47
2018-01-01T08:04:08.781Z,1.30
2018-01-01T08:06:37.963Z,1.13
2018-01-01T08:09:07.160Z,1.10
2018-01-01T08:11:36.400Z,1.30
2018-01-01T08:14:05.558Z,1.20
2018-01-01T08:16:34.746Z,1.20
2018-01-01T08:19:04.031Z,1.00
2018-01-01T08:21:33.209Z,1.43
2018-01-01T08:24:03.187Z,1.30
2018-01-01T08:26:32.366Z,1.30
2018-01-01T08:29:01.545Z,0.90
2018-01-01T08:31:30.824Z,1.00
2018-01-01T08:34:00.007Z,1.20
2018-01-01T08:36:30.013Z,0.90
2018-01-01T08:38:59.213Z,0.77
2018-01-01T08:41:29.152Z,0.90
2018-01-01T08:43:58.364Z,0.90
2018-01-01T08:46:27.571Z,1.70
2018-01-01T08:48:56.787Z,1.23
2018-01-01T08:51:26.027Z,1.20
2018-01-01T08:53:56.099Z,1.10
2018-01-01T08:56:25.317Z,1.40
2018-01-01T08:58:54.478Z,1.10
2018-01-01T09:01:23.704Z,1.20
2018-01-01T09:03:52.915Z,1.70
2018-01-01T09:06:22.122Z,1.50
2018-01-01T09:08:51.287Z,1.47
2018-01-01T09:11:20.488Z,1.30
2018-01-01T09:13:49.680Z,1.10
2018-01-01T09:16:18.930Z,1.47
2018-01-01T09:18:48.883Z,1.83
2018-01-01T09:21:19.033Z,1.57
2018-01-01T09:23:48.211Z,2.10
2018-01-01T09:26:17.397Z,1.50
2018-01-01T09:28:46.587Z,1.30
2018-01-01T09:31:15.765Z,1.90
2018-01-01T09:33:44.967Z,2.17
2018-01-01T09:36:14.131Z,1.70
2018-01-01T09:38:44.098Z,1.40
2018-01-01T09:41:13.258Z,1.70
2018-01-01T09:43:42.482Z,1.43
2018-01-01T09:46:11.686Z,1.30
2018-01-01T09:48:40.861Z,0.90
2018-01-01T09:51:10.811Z,0.90
2018-01-01T09:53:40.007Z,1.10
2018-01-01T09:56:09.197Z,0.93
2018-01-01T09:58:38.397Z,1.23
2018-01-01T10:01:08.386Z,1.13
2018-01-01T10:03:37.608Z,0.80
2018-01-01T10:06:06.804Z,1.23
2018-01-01T10:08:35.978Z,1.30
2018-01-01T10:11:05.166Z,0.90
2018-01-01T10:13:34.356Z,1.10
2018-01-01T10:16:04.324Z,1.37
2018-01-01T10:18:33.507Z,1.30
2018-01-01T10:21:02.729Z,1.50
2018-01-01T10:23:31.907Z,1.17
2018-01-01T10:26:01.131Z,1.50
2018-01-01T10:28:30.293Z,1.20
2018-01-01T10:30:59.503Z,1.50
2018-01-01T10:33:29.445Z,1.00
2018-01-01T10:35:59.422Z,1.40
2018-01-01T10:38:29.324Z,1.30
2018-01-01T10:40:58.522Z,1.63
2018-01-01T10:43:27.733Z,1.33
2018-01-01T10:45:56.904Z,1.10
2018-01-01T10:48:26.087Z,0.97
2018-01-01T10:50:55.423Z,1.60
2018-01-01T10:53:24.622Z,1.03
2018-01-01T10:55:53.804Z,1.00
2018-01-01T10:58:22.986Z,1.13
2018-01-01T11:00:52.157Z,1.00
2018-01-01T11:03:22.126Z,1.13
2018-01-01T11:05:51.370Z,1.40
2018-01-01T11:08:21.354Z,1.43
2018-01-01T11:10:50.570Z,1.00
2018-01-01T11:13:19.746Z,1.00
2018-01-01T11:15:48.966Z,1.37
2018-01-01T11:18:18.171Z,1.13
2018-01-01T11:20:48.161Z,1.40
2018-01-01T11:23:17.338Z,1.67
2018-01-01T11:25:46.537Z,1.43
2018-01-01T11:28:15.723Z,1.20
2018-01-01T11:30:44.937Z,1.30
2018-01-01T11:33:14.113Z,1.47
2018-01-01T11:35:43.322Z,1.87
2018-01-01T11:38:12.562Z,1.20
2018-01-01T11:40:41.783Z,1.70
2018-01-01T11:43:11.822Z,1.50
2018-01-01T11:45:41.010Z,1.13
2018-01-01T11:48:10.215Z,1.60
2018-01-01T11:50:39.499Z,1.57
2018-01-01T11:53:09.548Z,1.30
2018-01-01T11:55:38.752Z,1.70
2018-01-01T11:58:07.939Z,0.90
2018-01-01T12:00:37.132Z,1.40
2018-01-01T12:03:06.335Z,1.30
2018-01-01T12:05:35.555Z,1.67
2018-01-01T12:08:04.791Z,1.97
2018-01-01T12:10:34.770Z,1.47
2018-01-01T12:13:04.085Z,1.57
2018-01-01T12:15:35.133Z,1.90
2018-01-01T12:18:05.938Z,1.63
2018-01-01T12:20:35.130Z,1.40
2018-01-01T12:23:04.334Z,1.37
2018-01-01T12:25:33.527Z,1.80
2018-01-01T12:28:02.751Z,1.50
2018-01-01T12:30:31.943Z,1.63
2018-01-01T12:33:01.122Z,1.57
2018-01-01T12:35:30.332Z,1.07
2018-01-01T12:37:59.490Z,1.50
2018-01-01T12:40:28.718Z,1.33
2018-01-01T12:42:57.926Z,2.07
2018-01-01T12:45:27.147Z,1.30
2018-01-01T12:47:56.309Z,1.50
2018-01-01T12:50:25.516Z,1.50
2018-01-01T12:52:54.701Z,1.70
2018-01-01T12:55:23.988Z,1.50
2018-01-01T12:57:55.023Z,2.20
2018-01-01T13:00:24.235Z,1.30
2018-01-01T13:02:53.453Z,1.20
2018-01-01T13:05:22.673Z,1.13
2018-01-01T13:07:52.650Z,1.17
2018-01-01T13:10:21.855Z,1.83
2018-01-01T13:12:51.046Z,1.40
2018-01-01T13:15:20.238Z,1.50
2018-01-01T13:17:49.447Z,1.20
2018-01-01T13:20:18.650Z,1.50
2018-01-01T13:22:47.854Z,1.03
2018-01-01T13:25:17.042Z,1.00
2018-01-01T13:27:46.248Z,1.20
2018-01-01T13:30:15.447Z,1.47
2018-01-01T13:32:44.678Z,1.63
2018-01-01T13:35:13.875Z,1.37
2018-01-01T13:37:43.061Z,1.80
2018-01-01T13:40:12.295Z,1.50
2018-01-01T13:42:41.503Z,1.73
2018-01-01T13:45:10.686Z,2.20
2018-01-01T13:47:39.898Z,1.23
2018-01-01T13:50:09.136Z,2.10
2018-01-01T13:52:39.080Z,1.67
2018-01-01T13:55:08.307Z,2.63
2018-01-01T13:57:37.490Z,1.70
2018-01-01T14:00:06.697Z,1.90
2018-01-01T14:02:35.886Z,3.33
2018-01-01T14:05:05.139Z,1.50
2018-01-01T14:07:35.089Z,1.33
2018-01-01T14:10:04.379Z,1.90
2018-01-01T14:12:33.563Z,1.47
2018-01-01T14:15:02.808Z,1.40
2018-01-01T14:17:32.079Z,1.70
2018-01-01T14:20:01.282Z,1.30
2018-01-01T14:22:30.521Z,1.80
2018-01-01T14:25:00.487Z,1.27
2018-01-01T14:27:29.678Z,1.70
2018-01-01T14:29:58.863Z,1.80
2018-01-01T14:32:28.062Z,1.60
2018-01-01T14:34:57.252Z,1.83
2018-01-01T14:37:27.250Z,1.63
2018-01-01T14:39:57.202Z,2.00
2018-01-01T14:42:26.412Z,2.70
2018-01-01T14:44:56.434Z,1.50
2018-01-01T14:47:25.644Z,1.77
2018-01-01T14:49:54.848Z,1.90
2018-01-01T14:52:24.140Z,1.80
2018-01-01T14:54:53.312Z,2.63
2018-01-01T14:57:22.529Z,2.27
2018-01-01T14:59:51.746Z,1.80
2018-01-01T15:02:20.943Z,2.47
2018-01-01T15:04:50.279Z,2.07
2018-01-01T15:07:20.241Z,1.80
2018-01-01T15:09:49.544Z,2.07
2018-01-01T15:12:18.777Z,2.60
2018-01-01T15:14:48.012Z,1.90
2018-01-01T15:17:17.189Z,2.10
2018-01-01T15:19:47.169Z,2.00
2018-01-01T15:22:16.352Z,2.30
2018-01-01T15:24:45.568Z,2.23
2018-01-01T15:27:14.758Z,1.80
2018-01-01T15:29:43.974Z,1.70
2018-01-01T15:32:13.976Z,2.10
2018-01-01T15:34:43.189Z,1.70
2018-01-01T15:37:13.174Z,1.70
2018-01-01T15:39:42.355Z,1.50
2018-01-01T15:42:11.558Z,2.50
2018-01-01T15:44:40.756Z,1.70
2018-01-01T15:47:09.963Z,2.90
2018-01-01T15:49:39.214Z,2.73
2018-01-01T15:52:08.420Z,3.00
2018-01-01T15:54:37.745Z,2.60
2018-01-01T15:57:06.938Z,2.37
2018-01-01T15:59:36.195Z,2.27
2018-01-01T16:02:06.258Z,2.20
2018-01-01T16:04:35.531Z,2.03
2018-01-01T16:07:04.758Z,3.10
2018-01-01T16:09:33.955Z,4.93
2018-01-01T16:12:03.162Z,2.60
2018-01-01T16:14:32.480Z,2.37
2018-01-01T16:17:01.664Z,2.77
2018-01-01T16:19:30.967Z,2.50
2018-01-01T16:22:00.303Z,2.67
2018-01-01T16:24:30.360Z,1.80
2018-01-01T16:26:59.685Z,1.93
2018-01-01T16:29:29.005Z,2.00
2018-01-01T16:31:59.078Z,2.67
2018-01-01T16:34:28.308Z,2.00
2018-01-01T16:36:57.625Z,2.43
2018-01-01T16:39:26.894Z,2.10
2018-01-01T16:41:56.130Z,2.00
2018-01-01T16:44:26.147Z,2.40
2018-01-01T16:46:56.121Z,2.20
2018-01-01T16:49:25.376Z,3.00
2018-01-01T16:51:54.609Z,1.83
2018-01-01T16:54:23.813Z,1.90
2018-01-01T16:56:53.034Z,2.07
2018-01-01T16:59:22.329Z,1.67
2018-01-01T17:01:51.786Z,2.13
2018-01-01T17:04:21.048Z,1.87
2018-01-01T17:06:50.304Z,1.63
2018-01-01T17:09:19.538Z,1.77
2018-01-01T17:11:48.848Z,1.57
2018-01-01T17:14:18.924Z,1.30
2018-01-01T17:16:48.273Z,1.10
2018-01-01T17:19:18.338Z,1.20
2018-01-01T17:21:47.766Z,1.50
2018-01-01T17:24:16.969Z,1.30
2018-01-01T17:26:46.506Z,1.53
2018-01-01T17:29:15.750Z,1.40
2018-01-01T17:31:44.953Z,1.57
2018-01-01T17:34:14.319Z,3.70
2018-01-01T17:36:43.536Z,7.47
2018-01-01T17:39:12.775Z,3.37
2018-01-01T17:41:41.967Z,4.20
2018-01-01T17:44:11.165Z,2.27
2018-01-01T17:46:41.490Z,1.87
2018-01-01T17:49:10.971Z,1.80
2018-01-01T17:51:40.389Z,1.70
2018-01-01T17:54:10.236Z,2.03
2018-01-01T17:56:39.802Z,2.20
2018-01-01T17:59:09.286Z,2.03
2018-01-01T18:01:39.303Z,1.70
2018-01-01T18:04:09.751Z,1.30
2018-01-01T18:06:39.149Z,1.53
2018-01-01T18:09:08.547Z,2.77
2018-01-01T18:11:38.185Z,2.20
2018-01-01T18:14:09.243Z,2.50
2018-01-01T18:16:38.767Z,3.00
2018-01-01T18:19:08.621Z,2.23
2018-01-01T18:21:39.050Z,3.57
2018-01-01T18:24:09.041Z,4.17
2018-01-01T18:26:38.988Z,5.23
2018-01-01T18:29:08.471Z,2.00
2018-01-01T18:31:38.075Z,3.10
2018-01-01T18:34:08.123Z,2.30
2018-01-01T18:36:37.644Z,2.30
2018-01-01T18:39:07.075Z,1.87
2018-01-01T18:41:37.269Z,2.80
2018-01-01T18:44:07.217Z,1.90
2018-01-01T18:46:36.919Z,1.80
2018-01-01T18:49:06.314Z,2.37
2018-01-01T18:51:35.891Z,3.77
2018-01-01T18:54:05.295Z,3.30
2018-01-01T18:56:35.666Z,2.53
2018-01-01T18:59:05.787Z,2.13
2018-01-01T19:01:35.454Z,3.40
2018-01-01T19:04:05.066Z,2.53
2018-01-01T19:06:34.478Z,2.83
2018-01-01T19:09:03.947Z,4.07
2018-01-01T19:11:33.419Z,3.47
2018-01-01T19:14:03.040Z,3.30
2018-01-01T19:16:32.806Z,3.50
2018-01-01T19:19:03.033Z,4.00
2018-01-01T19:21:32.635Z,4.00
2018-01-01T19:24:03.598Z,6.00
2018-01-01T19:26:33.828Z,9.33
2018-01-01T19:29:04.350Z,4.33
2018-01-01T19:31:33.978Z,2.00
2018-01-01T19:34:03.671Z,2.00
2018-01-01T19:36:34.205Z,1.57
2018-01-01T19:39:04.415Z,1.93
2018-01-01T19:41:34.047Z,2.10
2018-01-01T19:44:03.691Z,3.00
2018-01-01T19:46:33.359Z,3.37
2018-01-01T19:49:03.079Z,2.30
2018-01-01T19:51:32.794Z,1.30
2018-01-01T19:54:02.400Z,1.27
2018-01-01T19:56:33.391Z,1.37
2018-01-01T19:59:03.049Z,2.40
2018-01-01T20:01:33.993Z,3.50
2018-01-01T20:04:08.139Z,1.73
2018-01-01T20:06:38.391Z,2.30
2018-01-01T20:09:08.791Z,2.37
2018-01-01T20:11:39.173Z,2.37
2018-01-01T20:14:08.731Z,3.17
2018-01-01T20:16:38.677Z,4.50
2018-01-01T20:19:08.039Z,2.30
2018-01-01T20:21:37.502Z,1.90
2018-01-01T20:24:08.123Z,1.30
2018-01-01T20:26:38.433Z,1.80
2018-01-01T20:29:08.422Z,2.00
2018-01-01T20:31:38.357Z,1.93
2018-01-01T20:34:07.944Z,2.40
2018-01-01T20:36:37.647Z,2.57
2018-01-01T20:39:07.768Z,2.73
2018-01-01T20:41:37.239Z,3.17
2018-01-01T20:44:06.583Z,2.10
2018-01-01T20:46:36.352Z,1.90
2018-01-01T20:49:05.900Z,2.23
2018-01-01T20:51:35.229Z,2.00
2018-01-01T20:54:05.692Z,3.20
2018-01-01T20:56:35.717Z,2.30
2018-01-01T20:59:05.798Z,1.70
2018-01-01T21:01:35.176Z,1.23
2018-01-01T21:04:05.506Z,1.63
2018-01-01T21:06:35.490Z,1.10
2018-01-01T21:09:04.884Z,1.17
2018-01-01T21:11:34.404Z,1.33
2018-01-01T21:14:04.193Z,1.37
2018-01-01T21:16:34.088Z,1.10
2018-01-01T21:19:04.326Z,1.03
2018-01-01T21:21:34.108Z,1.80
2018-01-01T21:24:03.494Z,1.37
2018-01-01T21:26:33.322Z,1.10
2018-01-01T21:29:03.050Z,1.03
2018-01-01T21:31:32.947Z,1.50
2018-01-01T21:34:02.982Z,1.33
2018-01-01T21:36:34.188Z,1.30
2018-01-01T21:39:03.463Z,1.30
2018-01-01T21:41:34.101Z,1.40
2018-01-01T21:44:04.094Z,1.40
